Terminal Aerodrome Forecast
Issued by NWS Wilmington, OH

Current Version | Previous Version | Graphics & Text | Print | Product List | Glossary On
Versions: 1 2 3 4 5 6 7 8 9 10 11 12 13 14 15 16 17 18 19 20 21 22 23 24 25 26
000
FTUS41 KILN 301100
TAFCMH
TAF
KCMH 301134Z 3012/3112 32014G22KT P6SM BKN060
     FM301500 33013G21KT P6SM OVC015
     FM302000 34011KT P6SM OVC015
     FM310200 32004KT P6SM OVC015
     FM310800 18003KT P6SM SKC=

USA.gov is the U.S. government's official web portal to all federal, state and local government web resources and services.